createdAt,value
2019-06-15T00:00:41.759Z,23.39
2019-06-15T00:01:41.741Z,23.60
2019-06-15T00:02:41.727Z,23.53
2019-06-15T00:03:41.712Z,23.62
2019-06-15T00:04:41.690Z,23.55
2019-06-15T00:05:41.709Z,23.49
2019-06-15T00:06:41.655Z,23.57
2019-06-15T00:07:41.642Z,23.62
2019-06-15T00:08:41.661Z,23.61
2019-06-15T00:09:41.604Z,23.60
2019-06-15T00:10:41.588Z,23.64
2019-06-15T00:11:41.571Z,23.72
2019-06-15T00:12:42.308Z,23.76
2019-06-15T00:13:41.537Z,23.97
2019-06-15T00:14:41.523Z,23.97
2019-06-15T00:15:41.503Z,23.95
2019-06-15T00:16:41.485Z,24.04
2019-06-15T00:17:41.470Z,24.00
2019-06-15T00:18:41.499Z,23.92
2019-06-15T00:19:41.436Z,23.92
2019-06-15T00:20:41.419Z,23.71
2019-06-15T00:21:41.401Z,23.60
2019-06-15T00:22:41.387Z,23.35
2019-06-15T00:23:42.162Z,23.24
2019-06-15T00:24:41.351Z,22.99
2019-06-15T00:25:41.339Z,22.96
2019-06-15T00:26:41.317Z,22.87
2019-06-15T00:27:41.302Z,22.89
2019-06-15T00:28:41.285Z,22.90
2019-06-15T00:29:41.266Z,22.82
2019-06-15T00:30:41.251Z,22.74
2019-06-15T00:31:41.234Z,22.62
2019-06-15T00:32:41.217Z,22.56
2019-06-15T00:33:41.199Z,22.53
2019-06-15T00:34:41.184Z,22.50
2019-06-15T00:35:41.166Z,22.44
2019-06-15T00:36:41.151Z,22.22
2019-06-15T00:37:41.131Z,22.13
2019-06-15T00:38:41.116Z,22.07
2019-06-15T00:39:41.102Z,22.01
2019-06-15T00:40:41.081Z,21.83
2019-06-15T00:41:41.063Z,21.75
2019-06-15T00:42:41.046Z,21.60
2019-06-15T00:43:41.030Z,21.66
2019-06-15T00:44:41.013Z,21.48
2019-06-15T00:45:40.995Z,21.42
2019-06-15T00:46:40.978Z,21.32
2019-06-15T00:47:40.962Z,21.34
2019-06-15T00:48:40.953Z,21.23
2019-06-15T00:49:40.927Z,21.02
2019-06-15T00:50:40.910Z,20.99
2019-06-15T00:51:40.893Z,20.99
2019-06-15T00:52:40.876Z,20.95
2019-06-15T00:53:40.858Z,20.90
2019-06-15T00:54:49.939Z,20.87
2019-06-15T00:55:40.823Z,20.86
2019-06-15T00:56:40.807Z,20.68
2019-06-15T00:57:40.790Z,20.68
2019-06-15T00:58:40.801Z,20.62
2019-06-15T00:59:40.755Z,20.64
2019-06-15T01:00:40.737Z,20.64
2019-06-15T01:01:40.720Z,20.56
2019-06-15T01:02:40.704Z,20.50
2019-06-15T01:03:40.685Z,20.42
2019-06-15T01:04:40.712Z,20.33
2019-06-15T01:05:40.649Z,20.27
2019-06-15T01:06:40.632Z,20.23
2019-06-15T01:07:40.615Z,20.12
2019-06-15T01:08:40.597Z,20.08
2019-06-15T01:09:40.579Z,20.13
2019-06-15T01:10:40.563Z,20.16
2019-06-15T01:11:40.545Z,20.21
2019-06-15T01:12:40.527Z,20.20
2019-06-15T01:13:40.507Z,20.16
2019-06-15T01:14:40.492Z,20.15
2019-06-15T01:15:40.473Z,20.09
2019-06-15T01:16:40.455Z,20.09
2019-06-15T01:17:40.437Z,20.08
2019-06-15T01:18:40.419Z,20.08
2019-06-15T01:19:40.410Z,20.03
2019-06-15T01:20:40.384Z,20.08
2019-06-15T01:21:40.372Z,20.28
2019-06-15T01:22:40.347Z,20.59
2019-06-15T01:23:40.329Z,20.64
2019-06-15T01:24:40.310Z,20.71
2019-06-15T01:25:40.291Z,20.68
2019-06-15T01:26:40.274Z,20.84
2019-06-15T01:27:40.257Z,20.84
2019-06-15T01:28:40.238Z,20.83
2019-06-15T01:29:40.220Z,20.84
2019-06-15T01:30:40.202Z,20.81
2019-06-15T01:31:40.184Z,20.77
2019-06-15T01:32:40.165Z,20.71
2019-06-15T01:33:40.147Z,20.69
2019-06-15T01:34:40.130Z,20.65
2019-06-15T01:35:40.112Z,20.66
2019-06-15T01:36:40.093Z,20.69
2019-06-15T01:37:40.074Z,20.69
2019-06-15T01:38:40.058Z,20.62
2019-06-15T01:39:40.038Z,20.50
2019-06-15T01:40:40.021Z,20.53
2019-06-15T01:41:40.034Z,20.62
2019-06-15T01:42:39.987Z,20.58
2019-06-15T01:43:39.969Z,20.54
2019-06-15T01:44:39.947Z,20.66
2019-06-15T01:45:39.929Z,20.83
2019-06-15T01:46:39.912Z,20.93
2019-06-15T01:47:39.893Z,20.99
2019-06-15T01:48:39.877Z,20.95
2019-06-15T01:49:39.863Z,20.87
2019-06-15T01:50:39.839Z,20.95
2019-06-15T01:51:39.821Z,20.89
2019-06-15T01:52:39.803Z,20.79
2019-06-15T01:53:39.785Z,20.81
2019-06-15T01:54:39.766Z,20.72
2019-06-15T01:55:39.749Z,20.65
2019-06-15T01:56:40.482Z,20.58
2019-06-15T01:57:39.711Z,20.42
2019-06-15T01:58:39.694Z,20.39
2019-06-15T01:59:39.676Z,20.50
2019-06-15T02:00:39.692Z,20.64
2019-06-15T02:01:39.640Z,20.66
2019-06-15T02:02:39.630Z,20.61
2019-06-15T02:03:39.603Z,20.69
2019-06-15T02:04:39.585Z,20.69
2019-06-15T02:05:39.568Z,20.65
2019-06-15T02:06:39.548Z,20.77
2019-06-15T02:07:39.531Z,20.66
2019-06-15T02:08:39.512Z,20.76
2019-06-15T02:09:39.497Z,20.64
2019-06-15T02:10:39.475Z,20.74
2019-06-15T02:11:39.457Z,20.58
2019-06-15T02:12:39.441Z,20.50
2019-06-15T02:13:39.422Z,20.62
2019-06-15T02:14:39.408Z,20.42
2019-06-15T02:15:39.385Z,20.30
2019-06-15T02:16:39.375Z,20.23
2019-06-15T02:17:39.346Z,20.08
2019-06-15T02:18:39.328Z,19.94
2019-06-15T02:19:39.318Z,19.84
2019-06-15T02:20:39.291Z,19.63
2019-06-15T02:21:39.278Z,19.61
2019-06-15T02:22:39.253Z,19.46
2019-06-15T02:23:39.234Z,19.48
2019-06-15T02:24:39.217Z,19.28
2019-06-15T02:25:39.196Z,19.15
2019-06-15T02:26:39.179Z,19.24
2019-06-15T02:27:39.161Z,19.08
2019-06-15T02:28:39.142Z,18.95
2019-06-15T02:29:39.182Z,18.98
2019-06-15T02:30:39.103Z,18.83
2019-06-15T02:31:39.087Z,18.72
2019-06-15T02:32:39.067Z,18.65
2019-06-15T02:33:39.047Z,18.65
2019-06-15T02:34:39.032Z,18.50
2019-06-15T02:35:39.009Z,18.39
2019-06-15T02:36:38.998Z,18.40
2019-06-15T02:37:39.019Z,18.29
2019-06-15T02:38:38.953Z,18.25
2019-06-15T02:39:38.931Z,18.19
2019-06-15T02:40:38.911Z,18.17
2019-06-15T02:41:38.892Z,18.04
2019-06-15T02:42:38.885Z,18.03
2019-06-15T02:43:38.852Z,18.00
2019-06-15T02:44:38.836Z,18.04
2019-06-15T02:45:38.812Z,17.94
2019-06-15T02:46:38.796Z,18.00
2019-06-15T02:47:38.774Z,18.04
2019-06-15T02:48:38.766Z,17.97
2019-06-15T02:49:38.733Z,17.99
2019-06-15T02:50:38.719Z,18.02
2019-06-15T02:51:38.695Z,18.03
2019-06-15T02:52:38.674Z,18.03
2019-06-15T02:53:38.655Z,17.99
2019-06-15T02:54:38.636Z,17.92
2019-06-15T02:55:50.165Z,17.97
2019-06-15T02:56:38.597Z,18.04
2019-06-15T02:57:38.576Z,17.97
2019-06-15T02:58:38.570Z,18.03
2019-06-15T02:59:38.543Z,18.04
2019-06-15T03:00:38.517Z,18.09
2019-06-15T03:01:38.497Z,18.13
2019-06-15T03:02:38.484Z,18.07
2019-06-15T03:03:38.460Z,18.15
2019-06-15T03:04:38.438Z,18.06
2019-06-15T03:05:39.921Z,18.04
2019-06-15T03:06:38.399Z,18.06
2019-06-15T03:07:38.380Z,18.03
2019-06-15T03:08:38.361Z,18.07
2019-06-15T03:09:38.339Z,18.03
2019-06-15T03:10:38.320Z,18.04
2019-06-15T03:11:39.051Z,17.94
2019-06-15T03:12:38.281Z,17.94
2019-06-15T03:13:38.260Z,18.02
2019-06-15T03:14:38.244Z,17.91
2019-06-15T03:15:38.222Z,17.94
2019-06-15T03:16:38.202Z,18.07
2019-06-15T03:17:38.206Z,17.95
2019-06-15T03:18:38.163Z,17.92
2019-06-15T03:19:38.142Z,17.92
2019-06-15T03:20:38.126Z,17.92
2019-06-15T03:21:38.149Z,17.84
2019-06-15T03:22:38.085Z,17.91
2019-06-15T03:23:38.069Z,17.89
2019-06-15T03:24:38.049Z,17.85
2019-06-15T03:25:38.027Z,17.81
2019-06-15T03:26:38.005Z,17.76
2019-06-15T03:27:37.985Z,17.78
2019-06-15T03:28:37.974Z,17.74
2019-06-15T03:29:37.945Z,17.67
2019-06-15T03:30:37.931Z,17.67
2019-06-15T03:31:37.908Z,17.64
2019-06-15T03:32:37.892Z,17.69
2019-06-15T03:33:37.871Z,17.55
2019-06-15T03:34:37.848Z,17.50
2019-06-15T03:35:37.828Z,17.53
2019-06-15T03:36:37.808Z,17.51
2019-06-15T03:37:37.790Z,17.53
2019-06-15T03:38:37.769Z,17.55
2019-06-15T03:39:37.750Z,17.40
2019-06-15T03:40:37.730Z,17.44
2019-06-15T03:41:37.709Z,17.40
2019-06-15T03:42:37.690Z,17.47
2019-06-15T03:43:37.721Z,17.35
2019-06-15T03:44:37.725Z,17.33
2019-06-15T03:45:37.631Z,17.33
2019-06-15T03:46:37.611Z,17.35
2019-06-15T03:47:37.594Z,17.29
2019-06-15T03:48:37.571Z,17.32
2019-06-15T03:49:37.551Z,17.30
2019-06-15T03:50:37.532Z,17.33
2019-06-15T03:51:37.513Z,17.30
2019-06-15T03:52:37.494Z,17.33
2019-06-15T03:53:37.471Z,17.36
2019-06-15T03:54:37.453Z,17.30
2019-06-15T03:55:40.407Z,17.36
2019-06-15T03:56:37.414Z,17.32
2019-06-15T03:57:37.394Z,17.29
2019-06-15T03:58:37.379Z,17.32
2019-06-15T03:59:37.360Z,17.35
2019-06-15T04:00:37.335Z,17.41
2019-06-15T04:01:37.372Z,17.36
2019-06-15T04:02:37.299Z,17.43
2019-06-15T04:03:37.280Z,17.36
2019-06-15T04:04:37.256Z,17.38
2019-06-15T04:05:37.238Z,17.41
2019-06-15T04:06:37.216Z,17.47
2019-06-15T04:07:37.195Z,17.43
2019-06-15T04:08:37.177Z,17.43
2019-06-15T04:09:37.160Z,17.36
2019-06-15T04:10:37.142Z,17.38
2019-06-15T04:11:37.116Z,17.43
2019-06-15T04:12:37.097Z,17.51
2019-06-15T04:13:37.076Z,17.50
2019-06-15T04:14:37.057Z,17.55
2019-06-15T04:15:37.045Z,17.51
2019-06-15T04:16:37.023Z,17.62
2019-06-15T04:17:36.998Z,17.67
2019-06-15T04:18:36.980Z,17.73
2019-06-15T04:19:36.987Z,17.71
2019-06-15T04:20:36.940Z,17.71
2019-06-15T04:21:36.919Z,17.74
2019-06-15T04:22:36.904Z,17.84
2019-06-15T04:23:36.881Z,17.84
2019-06-15T04:24:36.861Z,17.87
2019-06-15T04:25:36.840Z,17.92
2019-06-15T04:26:36.822Z,17.89
2019-06-15T04:27:36.803Z,18.04
2019-06-15T04:28:36.781Z,17.95
2019-06-15T04:29:36.762Z,18.10
2019-06-15T04:30:36.753Z,18.09
2019-06-15T04:31:39.845Z,18.15
2019-06-15T04:32:36.709Z,18.15
2019-06-15T04:33:36.684Z,18.22
2019-06-15T04:34:36.666Z,18.27
2019-06-15T04:35:36.646Z,18.27
2019-06-15T04:36:36.627Z,18.37
2019-06-15T04:37:36.608Z,18.46
2019-06-15T04:38:36.588Z,18.47
2019-06-15T04:39:36.567Z,18.50
2019-06-15T04:40:36.550Z,18.55
2019-06-15T04:41:36.529Z,18.47
2019-06-15T04:42:36.518Z,18.40
2019-06-15T04:43:36.491Z,18.57
2019-06-15T04:44:36.472Z,18.61
2019-06-15T04:45:36.452Z,18.61
2019-06-15T04:46:38.686Z,18.54
2019-06-15T04:47:36.414Z,18.50
2019-06-15T04:48:36.395Z,18.50
2019-06-15T04:49:36.378Z,18.57
2019-06-15T04:50:36.357Z,18.47
2019-06-15T04:51:36.339Z,18.54
2019-06-15T04:52:36.319Z,18.52
2019-06-15T04:53:36.299Z,18.52
2019-06-15T04:54:36.285Z,18.50
2019-06-15T04:55:36.266Z,18.57
2019-06-15T04:56:50.026Z,18.57
2019-06-15T04:57:36.224Z,18.54
2019-06-15T04:58:36.204Z,18.52
2019-06-15T04:59:36.185Z,18.54
2019-06-15T05:00:36.166Z,18.58
2019-06-15T05:01:36.147Z,18.62
2019-06-15T05:02:36.127Z,18.52
2019-06-15T05:03:36.108Z,18.54
2019-06-15T05:04:36.090Z,18.57
2019-06-15T05:05:36.074Z,18.67
2019-06-15T05:06:36.052Z,18.57
2019-06-15T05:07:36.032Z,18.58
2019-06-15T05:08:36.014Z,18.68
2019-06-15T05:09:35.994Z,18.67
2019-06-15T05:10:35.974Z,18.61
2019-06-15T05:11:35.990Z,18.67
2019-06-15T05:12:35.940Z,18.64
2019-06-15T05:13:38.923Z,18.62
2019-06-15T05:14:35.899Z,18.76
2019-06-15T05:15:35.880Z,18.82
2019-06-15T05:16:35.861Z,18.82
2019-06-15T05:17:35.854Z,18.84
2019-06-15T05:18:35.823Z,18.87
2019-06-15T05:19:35.803Z,18.86
2019-06-15T05:20:35.786Z,18.91
2019-06-15T05:21:35.768Z,18.94
2019-06-15T05:22:35.751Z,19.05
2019-06-15T05:23:35.729Z,18.92
2019-06-15T05:24:35.710Z,18.91
2019-06-15T05:25:35.694Z,19.01
2019-06-15T05:26:35.672Z,18.98
2019-06-15T05:27:35.654Z,19.24
2019-06-15T05:28:35.634Z,19.35
2019-06-15T05:29:35.618Z,19.40
2019-06-15T05:30:35.596Z,19.50
2019-06-15T05:31:35.578Z,19.46
2019-06-15T05:32:35.563Z,19.72
2019-06-15T05:33:35.540Z,19.76
2019-06-15T05:34:35.521Z,19.83
2019-06-15T05:35:35.507Z,19.84
2019-06-15T05:36:35.486Z,19.91
2019-06-15T05:37:35.467Z,19.95
2019-06-15T05:38:35.447Z,20.03
2019-06-15T05:39:35.430Z,20.25
2019-06-15T05:40:35.412Z,20.03
2019-06-15T05:41:35.394Z,20.03
2019-06-15T05:42:35.375Z,20.13
2019-06-15T05:43:35.358Z,20.27
2019-06-15T05:44:35.340Z,20.33
2019-06-15T05:45:35.321Z,20.06
2019-06-15T05:46:35.302Z,19.98
2019-06-15T05:47:35.314Z,19.98
2019-06-15T05:48:35.267Z,19.88
2019-06-15T05:49:35.249Z,19.87
2019-06-15T05:50:35.233Z,19.70
2019-06-15T05:51:35.214Z,19.69
2019-06-15T05:52:35.197Z,19.60
2019-06-15T05:53:35.178Z,19.57
2019-06-15T05:54:35.161Z,19.61
2019-06-15T05:55:35.143Z,19.70
2019-06-15T05:56:35.125Z,19.83
2019-06-15T05:57:35.105Z,19.86
2019-06-15T05:58:35.088Z,19.83
2019-06-15T05:59:35.071Z,19.86
2019-06-15T06:00:35.054Z,19.93
2019-06-15T06:01:35.035Z,19.97
2019-06-15T06:02:35.017Z,20.09
2019-06-15T06:03:35.001Z,20.18
2019-06-15T06:04:34.987Z,20.18
2019-06-15T06:05:34.963Z,20.03
2019-06-15T06:06:34.970Z,20.15
2019-06-15T06:07:34.927Z,20.15
2019-06-15T06:08:34.910Z,20.16
2019-06-15T06:09:34.891Z,20.31
2019-06-15T06:10:34.874Z,20.23
2019-06-15T06:11:34.866Z,20.41
2019-06-15T06:12:34.837Z,20.39
2019-06-15T06:13:34.829Z,20.42
2019-06-15T06:14:34.802Z,20.35
2019-06-15T06:15:34.789Z,20.38
2019-06-15T06:16:34.768Z,20.30
2019-06-15T06:17:34.747Z,20.28
2019-06-15T06:18:34.734Z,20.20
2019-06-15T06:19:34.713Z,20.33
2019-06-15T06:20:34.696Z,20.21
2019-06-15T06:21:34.678Z,20.38
2019-06-15T06:22:34.687Z,20.49
2019-06-15T06:23:34.644Z,20.33
2019-06-15T06:24:34.632Z,20.30
2019-06-15T06:25:34.606Z,20.28
2019-06-15T06:26:34.600Z,20.39
2019-06-15T06:27:39.833Z,20.35
2019-06-15T06:28:34.559Z,20.54
2019-06-15T06:29:34.535Z,20.56
2019-06-15T06:30:34.520Z,20.47
2019-06-15T06:31:34.502Z,20.50
2019-06-15T06:32:34.483Z,20.58
2019-06-15T06:33:34.466Z,20.68
2019-06-15T06:34:34.447Z,20.64
2019-06-15T06:35:34.429Z,20.66
2019-06-15T06:36:34.413Z,20.64
2019-06-15T06:37:34.393Z,20.71
2019-06-15T06:38:34.377Z,20.64
2019-06-15T06:39:34.358Z,20.61
2019-06-15T06:40:34.341Z,20.47
2019-06-15T06:41:34.333Z,20.16
2019-06-15T06:42:34.305Z,20.15
2019-06-15T06:43:34.291Z,20.21
2019-06-15T06:44:34.278Z,20.38
2019-06-15T06:45:34.253Z,20.38
2019-06-15T06:46:34.245Z,20.43
2019-06-15T06:47:34.218Z,20.49
2019-06-15T06:48:34.202Z,20.25
2019-06-15T06:49:34.180Z,20.16
2019-06-15T06:50:34.164Z,20.03
2019-06-15T06:51:34.150Z,20.23
2019-06-15T06:52:34.127Z,20.20
2019-06-15T06:53:34.110Z,20.28
2019-06-15T06:54:34.092Z,20.15
2019-06-15T06:55:34.074Z,20.28
2019-06-15T06:56:34.061Z,20.13
2019-06-15T06:57:34.051Z,20.28
2019-06-15T06:58:34.021Z,19.97
2019-06-15T06:59:34.003Z,19.94
2019-06-15T07:00:33.986Z,20.03
2019-06-15T07:01:33.967Z,20.02
2019-06-15T07:02:33.949Z,19.95
2019-06-15T07:03:33.936Z,20.06
2019-06-15T07:04:33.943Z,20.12
2019-06-15T07:05:33.900Z,20.05
2019-06-15T07:06:33.876Z,20.05
2019-06-15T07:07:33.860Z,20.20
2019-06-15T07:08:33.843Z,20.13
2019-06-15T07:09:33.822Z,20.15
2019-06-15T07:10:33.804Z,20.16
2019-06-15T07:11:33.790Z,20.24
2019-06-15T07:12:33.819Z,20.13
2019-06-15T07:13:33.751Z,20.00
2019-06-15T07:14:33.733Z,20.08
2019-06-15T07:15:35.967Z,19.97
2019-06-15T07:16:33.747Z,19.95
2019-06-15T07:17:33.793Z,19.98
2019-06-15T07:18:33.660Z,20.13
2019-06-15T07:19:33.649Z,20.38
2019-06-15T07:20:33.625Z,20.34
2019-06-15T07:21:33.608Z,20.46
2019-06-15T07:22:33.590Z,20.31
2019-06-15T07:23:33.585Z,20.28
2019-06-15T07:24:33.553Z,20.28
2019-06-15T07:25:33.563Z,20.24
2019-06-15T07:26:33.541Z,20.28
2019-06-15T07:27:33.529Z,20.24
2019-06-15T07:28:33.492Z,20.20
2019-06-15T07:29:33.469Z,20.30
2019-06-15T07:30:33.464Z,20.25
2019-06-15T07:31:33.433Z,20.34
2019-06-15T07:32:33.632Z,20.27
2019-06-15T07:33:33.392Z,20.15
2019-06-15T07:34:33.374Z,20.06
2019-06-15T07:35:33.354Z,20.13
2019-06-15T07:36:33.337Z,20.13
2019-06-15T07:37:33.319Z,20.20
2019-06-15T07:38:33.301Z,20.38
2019-06-15T07:39:33.283Z,20.54
2019-06-15T07:40:33.266Z,20.64
2019-06-15T07:41:33.248Z,20.64
2019-06-15T07:42:33.233Z,20.58
2019-06-15T07:43:33.214Z,20.80
2019-06-15T07:44:33.197Z,20.72
2019-06-15T07:45:33.179Z,20.61
2019-06-15T07:46:33.158Z,20.50
2019-06-15T07:47:33.144Z,20.39
2019-06-15T07:48:33.226Z,20.54
2019-06-15T07:49:33.107Z,20.66
2019-06-15T07:50:33.091Z,20.53
2019-06-15T07:51:33.081Z,20.59
2019-06-15T07:52:33.065Z,20.79
2019-06-15T07:53:33.037Z,20.95
2019-06-15T07:54:36.050Z,21.09
2019-06-15T07:55:33.051Z,20.96
2019-06-15T07:56:32.987Z,21.01
2019-06-15T07:57:32.974Z,20.87
2019-06-15T07:58:32.952Z,20.72
2019-06-15T07:59:32.937Z,20.71
2019-06-15T08:00:32.919Z,20.80
2019-06-15T08:01:32.900Z,20.80
2019-06-15T08:02:32.883Z,20.80
2019-06-15T08:03:32.870Z,20.86
2019-06-15T08:04:32.851Z,20.98
2019-06-15T08:05:32.836Z,20.71
2019-06-15T08:06:32.868Z,20.53
2019-06-15T08:07:32.801Z,20.68
2019-06-15T08:08:32.786Z,20.84
2019-06-15T08:09:35.024Z,20.71
2019-06-15T08:10:32.751Z,20.68
2019-06-15T08:11:32.739Z,20.56
2019-06-15T08:12:32.717Z,20.49
2019-06-15T08:13:32.701Z,20.56
2019-06-15T08:14:32.687Z,20.99
2019-06-15T08:15:33.419Z,20.81
2019-06-15T08:16:32.653Z,20.38
2019-06-15T08:17:32.654Z,20.28
2019-06-15T08:18:32.619Z,20.38
2019-06-15T08:19:32.602Z,20.49
2019-06-15T08:20:32.586Z,20.54
2019-06-15T08:21:32.569Z,20.64
2019-06-15T08:22:32.552Z,20.64
2019-06-15T08:23:32.536Z,20.33
2019-06-15T08:24:32.520Z,20.43
2019-06-15T08:25:32.501Z,20.30
2019-06-15T08:26:32.486Z,20.21
2019-06-15T08:27:32.468Z,20.25
2019-06-15T08:28:40.272Z,20.06
2019-06-15T08:29:32.434Z,20.13
2019-06-15T08:30:32.417Z,20.16
2019-06-15T08:31:32.403Z,20.16
2019-06-15T08:32:32.384Z,20.27
2019-06-15T08:33:32.368Z,20.33
2019-06-15T08:34:32.394Z,20.41
2019-06-15T08:35:32.334Z,20.56
2019-06-15T08:36:32.319Z,20.54
2019-06-15T08:37:32.298Z,20.71
2019-06-15T08:38:32.284Z,20.54
2019-06-15T08:39:32.267Z,20.27
2019-06-15T08:40:32.250Z,20.18
2019-06-15T08:41:32.231Z,20.28
2019-06-15T08:42:32.215Z,20.39
2019-06-15T08:43:32.203Z,20.53
2019-06-15T08:44:32.182Z,20.65
2019-06-15T08:45:32.164Z,20.54
2019-06-15T08:46:32.147Z,20.71
2019-06-15T08:47:32.131Z,20.66
2019-06-15T08:48:32.114Z,20.43
2019-06-15T08:49:32.108Z,20.34
2019-06-15T08:50:32.081Z,20.16
2019-06-15T08:51:32.063Z,20.31
2019-06-15T08:52:32.047Z,20.35
2019-06-15T08:53:32.029Z,20.39
2019-06-15T08:54:32.013Z,20.56
2019-06-15T08:55:32.003Z,20.80
2019-06-15T08:56:31.979Z,21.04
2019-06-15T08:57:31.964Z,20.80
2019-06-15T08:58:31.946Z,20.91
2019-06-15T08:59:31.930Z,20.68
2019-06-15T09:00:31.924Z,20.80
2019-06-15T09:01:31.895Z,20.76
2019-06-15T09:02:31.888Z,21.08
2019-06-15T09:03:31.865Z,21.32
2019-06-15T09:04:31.850Z,21.08
2019-06-15T09:05:31.830Z,21.02
2019-06-15T09:06:31.813Z,21.23
2019-06-15T09:07:31.797Z,21.13
2019-06-15T09:08:31.784Z,21.34
2019-06-15T09:09:31.772Z,20.95
2019-06-15T09:10:31.749Z,21.21
2019-06-15T09:11:31.734Z,21.24
2019-06-15T09:12:31.719Z,21.17
2019-06-15T09:13:32.459Z,20.76
2019-06-15T09:14:31.685Z,20.64
2019-06-15T09:15:31.675Z,20.68
2019-06-15T09:16:31.657Z,20.76
2019-06-15T09:17:31.637Z,20.86
2019-06-15T09:18:31.630Z,20.99
2019-06-15T09:19:31.607Z,21.27
2019-06-15T09:20:31.591Z,21.53
2019-06-15T09:21:31.576Z,21.67
2019-06-15T09:22:31.560Z,21.82
2019-06-15T09:23:31.544Z,21.72
2019-06-15T09:24:31.529Z,21.81
2019-06-15T09:25:31.514Z,21.75
2019-06-15T09:26:31.497Z,21.75
2019-06-15T09:27:31.482Z,21.51
2019-06-15T09:28:31.466Z,21.74
2019-06-15T09:29:31.448Z,21.83
2019-06-15T09:30:31.434Z,21.81
2019-06-15T09:31:31.420Z,21.78
2019-06-15T09:32:31.404Z,21.53
2019-06-15T09:33:31.388Z,21.75
2019-06-15T09:34:31.375Z,21.63
2019-06-15T09:35:31.358Z,21.50
2019-06-15T09:36:31.342Z,21.30
2019-06-15T09:37:31.327Z,21.60
2019-06-15T09:38:31.310Z,21.85
2019-06-15T09:39:31.295Z,21.56
2019-06-15T09:40:31.280Z,21.30
2019-06-15T09:41:31.264Z,21.34
2019-06-15T09:42:31.345Z,21.74
2019-06-15T09:43:31.235Z,21.72
2019-06-15T09:44:31.221Z,21.46
2019-06-15T09:45:33.064Z,21.48
2019-06-15T09:46:31.187Z,21.56
2019-06-15T09:47:31.174Z,21.16
2019-06-15T09:48:31.159Z,21.06
2019-06-15T09:49:31.140Z,21.11
2019-06-15T09:50:31.129Z,21.23
2019-06-15T09:51:31.110Z,21.30
2019-06-15T09:52:31.095Z,21.57
2019-06-15T09:53:31.079Z,21.75
2019-06-15T09:54:31.063Z,21.67
2019-06-15T09:55:31.048Z,21.88
2019-06-15T09:56:31.031Z,22.02
2019-06-15T09:57:31.016Z,21.99
2019-06-15T09:58:31.001Z,21.81
2019-06-15T09:59:30.985Z,21.50
2019-06-15T10:00:30.970Z,21.48
2019-06-15T10:01:30.954Z,21.54
2019-06-15T10:02:30.940Z,21.45
2019-06-15T10:03:30.923Z,21.35
2019-06-15T10:04:30.907Z,21.34
2019-06-15T10:05:30.891Z,21.32
2019-06-15T10:06:30.876Z,21.24
2019-06-15T10:07:30.865Z,21.46
2019-06-15T10:08:30.846Z,21.59
2019-06-15T10:09:30.845Z,21.64
2019-06-15T10:10:30.814Z,21.79
2019-06-15T10:11:30.800Z,21.63
2019-06-15T10:12:30.782Z,21.72
2019-06-15T10:13:31.531Z,21.76
2019-06-15T10:14:30.750Z,21.94
2019-06-15T10:15:30.735Z,22.13
2019-06-15T10:16:30.719Z,22.10
2019-06-15T10:17:30.703Z,22.19
2019-06-15T10:18:30.687Z,22.41
2019-06-15T10:19:30.671Z,22.35
2019-06-15T10:20:30.662Z,22.56
2019-06-15T10:21:30.639Z,22.07
2019-06-15T10:22:30.625Z,21.81
2019-06-15T10:23:30.669Z,21.83
2019-06-15T10:24:30.593Z,21.69
2019-06-15T10:25:30.576Z,21.71
2019-06-15T10:26:30.562Z,21.67
2019-06-15T10:27:30.545Z,21.88
2019-06-15T10:28:30.532Z,22.04
2019-06-15T10:29:41.585Z,22.20
2019-06-15T10:30:30.498Z,22.14
2019-06-15T10:31:30.483Z,22.22
2019-06-15T10:32:30.466Z,22.39
2019-06-15T10:33:30.449Z,22.53
2019-06-15T10:34:30.453Z,22.01
2019-06-15T10:35:30.420Z,21.78
2019-06-15T10:36:30.406Z,21.97
2019-06-15T10:37:30.400Z,22.02
2019-06-15T10:38:30.374Z,22.13
2019-06-15T10:39:30.358Z,21.81
2019-06-15T10:40:30.342Z,21.71
2019-06-15T10:41:30.329Z,21.76
2019-06-15T10:42:30.310Z,21.75
2019-06-15T10:43:30.294Z,21.88
2019-06-15T10:44:30.278Z,22.09
2019-06-15T10:45:30.262Z,22.22
2019-06-15T10:46:30.268Z,22.41
2019-06-15T10:47:30.232Z,22.43
2019-06-15T10:48:30.216Z,22.29
2019-06-15T10:49:30.205Z,21.98
2019-06-15T10:50:30.185Z,22.27
2019-06-15T10:51:30.176Z,22.29
2019-06-15T10:52:30.155Z,22.64
2019-06-15T10:53:30.139Z,22.57
2019-06-15T10:54:30.123Z,22.68
2019-06-15T10:55:30.108Z,22.52
2019-06-15T10:56:30.095Z,22.75
2019-06-15T10:57:30.079Z,22.69
2019-06-15T10:58:30.064Z,22.80
2019-06-15T10:59:30.050Z,22.87
2019-06-15T11:00:30.033Z,22.53
2019-06-15T11:01:30.032Z,22.82
2019-06-15T11:02:30.008Z,23.05
2019-06-15T11:03:29.987Z,22.54
2019-06-15T11:04:29.972Z,22.43
2019-06-15T11:05:29.958Z,22.47
2019-06-15T11:06:29.940Z,22.69
2019-06-15T11:07:29.927Z,22.93
2019-06-15T11:08:29.912Z,22.94
2019-06-15T11:09:29.897Z,22.60
2019-06-15T11:10:29.880Z,22.13
2019-06-15T11:11:29.865Z,22.23
2019-06-15T11:12:42.720Z,22.28
2019-06-15T11:13:29.834Z,22.25
2019-06-15T11:14:29.827Z,22.46
2019-06-15T11:15:29.808Z,22.67
2019-06-15T11:16:31.289Z,22.93
2019-06-15T11:17:29.771Z,23.02
2019-06-15T11:18:29.756Z,23.02
2019-06-15T11:19:29.743Z,22.43
2019-06-15T11:20:29.728Z,22.41
2019-06-15T11:21:29.709Z,22.43
2019-06-15T11:22:29.698Z,22.49
2019-06-15T11:23:29.690Z,22.53
2019-06-15T11:24:29.662Z,22.75
2019-06-15T11:25:29.647Z,22.90
2019-06-15T11:26:29.632Z,22.97
2019-06-15T11:27:29.616Z,23.04
2019-06-15T11:28:29.606Z,23.24
2019-06-15T11:29:29.584Z,23.26
2019-06-15T11:30:29.568Z,23.02
2019-06-15T11:31:29.553Z,22.53
2019-06-15T11:32:29.536Z,22.25
2019-06-15T11:33:29.524Z,22.04
2019-06-15T11:34:29.506Z,22.10
2019-06-15T11:35:29.489Z,22.09
2019-06-15T11:36:29.472Z,22.39
2019-06-15T11:37:29.455Z,22.39
2019-06-15T11:38:30.191Z,22.64
2019-06-15T11:39:29.425Z,22.77
2019-06-15T11:40:29.408Z,22.77
2019-06-15T11:41:29.397Z,22.65
2019-06-15T11:42:29.375Z,22.69
2019-06-15T11:43:29.395Z,22.87
2019-06-15T11:44:29.345Z,22.65
2019-06-15T11:45:29.329Z,22.53
2019-06-15T11:46:29.311Z,22.59
2019-06-15T11:47:29.295Z,22.65
2019-06-15T11:48:29.280Z,22.87
2019-06-15T11:49:29.264Z,22.68
2019-06-15T11:50:29.247Z,22.59
2019-06-15T11:51:29.231Z,22.75
2019-06-15T11:52:29.215Z,22.97
2019-06-15T11:53:29.198Z,23.27
2019-06-15T11:54:29.184Z,23.02
2019-06-15T11:55:39.004Z,23.22
2019-06-15T11:56:29.162Z,22.54
2019-06-15T11:57:29.159Z,22.59
2019-06-15T11:58:29.117Z,22.94
2019-06-15T11:59:29.102Z,23.31
2019-06-15T12:00:31.461Z,23.50
2019-06-15T12:01:29.070Z,23.23
2019-06-15T12:02:29.055Z,22.86
2019-06-15T12:03:29.039Z,22.62
2019-06-15T12:04:29.023Z,22.94
2019-06-15T12:05:29.017Z,22.80
2019-06-15T12:06:28.990Z,22.92
2019-06-15T12:07:28.976Z,22.84
2019-06-15T12:08:28.960Z,22.86
2019-06-15T12:09:28.945Z,23.04
2019-06-15T12:10:28.938Z,22.87
2019-06-15T12:11:28.915Z,23.04
2019-06-15T12:12:28.901Z,22.97
2019-06-15T12:13:28.883Z,22.74
2019-06-15T12:14:28.866Z,22.84
2019-06-15T12:15:28.854Z,22.99
2019-06-15T12:16:28.845Z,23.27
2019-06-15T12:17:28.820Z,23.17
2019-06-15T12:18:28.804Z,22.86
2019-06-15T12:19:28.789Z,22.84
2019-06-15T12:20:28.774Z,22.57
2019-06-15T12:21:28.801Z,22.44
2019-06-15T12:22:28.742Z,22.47
2019-06-15T12:23:28.739Z,22.54
2019-06-15T12:24:28.712Z,22.41
2019-06-15T12:25:28.703Z,22.31
2019-06-15T12:26:28.680Z,22.64
2019-06-15T12:27:28.665Z,23.09
2019-06-15T12:28:28.650Z,23.15
2019-06-15T12:29:28.634Z,23.02
2019-06-15T12:30:28.622Z,23.09
2019-06-15T12:31:28.606Z,22.64
2019-06-15T12:32:31.627Z,22.77
2019-06-15T12:33:28.574Z,22.92
2019-06-15T12:34:28.557Z,23.19
2019-06-15T12:35:28.542Z,23.32
2019-06-15T12:36:28.533Z,23.27
2019-06-15T12:37:28.511Z,23.29
2019-06-15T12:38:28.495Z,23.39
2019-06-15T12:39:28.485Z,23.60
2019-06-15T12:40:28.465Z,23.67
2019-06-15T12:41:28.449Z,23.53
2019-06-15T12:42:28.434Z,23.39
2019-06-15T12:43:28.427Z,23.09
2019-06-15T12:44:28.408Z,22.93
2019-06-15T12:45:28.387Z,23.05
2019-06-15T12:46:28.372Z,23.29
2019-06-15T12:47:28.357Z,23.35
2019-06-15T12:48:28.342Z,23.80
2019-06-15T12:49:28.325Z,23.89
2019-06-15T12:50:28.312Z,23.19
2019-06-15T12:51:28.295Z,22.93
2019-06-15T12:52:28.281Z,23.05